sensor_id;sensor_type;location;lat;lon;timestamp;pressure;altitude;pressure_sealevel;temperature;humidity
59043;BME280;44826;51.596;5.624;2023-05-16T00:02:17;101787.59;;;9.46;78.88
59043;BME280;44826;51.596;5.624;2023-05-16T00:04:43;101774.63;;;9.46;78.70
59043;BME280;44826;51.596;5.624;2023-05-16T00:07:09;101787.59;;;9.49;78.28
59043;BME280;44826;51.596;5.624;2023-05-16T00:09:35;101785.84;;;9.48;78.72
59043;BME280;44826;51.596;5.624;2023-05-16T00:12:00;101785.88;;;9.45;78.38
59043;BME280;44826;51.596;5.624;2023-05-16T00:14:25;101787.59;;;9.46;77.97
59043;BME280;44826;51.596;5.624;2023-05-16T00:16:52;101789.31;;;9.47;78.20
59043;BME280;44826;51.596;5.624;2023-05-16T00:19:17;101795.41;;;9.48;78.35
59043;BME280;44826;51.596;5.624;2023-05-16T00:21:44;101788.47;;;9.48;78.59
59043;BME280;44826;51.596;5.624;2023-05-16T00:24:09;101790.22;;;9.48;77.98
59043;BME280;44826;51.596;5.624;2023-05-16T00:26:35;101788.47;;;9.47;78.76
59043;BME280;44826;51.596;5.624;2023-05-16T00:29:00;101799.72;;;9.50;78.57
59043;BME280;44826;51.596;5.624;2023-05-16T00:31:26;101787.59;;;9.49;79.40
59043;BME280;44826;51.596;5.624;2023-05-16T00:33:51;101792.78;;;9.49;79.57
59043;BME280;44826;51.596;5.624;2023-05-16T00:36:17;101790.22;;;9.48;80.39
59043;BME280;44826;51.596;5.624;2023-05-16T00:38:42;101791.94;;;9.47;80.08
59043;BME280;44826;51.596;5.624;2023-05-16T00:41:07;101791.94;;;9.44;80.07
59043;BME280;44826;51.596;5.624;2023-05-16T00:43:32;101790.22;;;9.41;80.01
59043;BME280;44826;51.596;5.624;2023-05-16T00:45:58;101789.38;;;9.39;79.64
59043;BME280;44826;51.596;5.624;2023-05-16T00:48:24;101791.97;;;9.36;79.54
59043;BME280;44826;51.596;5.624;2023-05-16T00:50:50;101788.53;;;9.31;79.57
59043;BME280;44826;51.596;5.624;2023-05-16T00:53:17;101794.63;;;9.27;79.64
59043;BME280;44826;51.596;5.624;2023-05-16T00:55:42;101791.22;;;9.20;79.44
59043;BME280;44826;51.596;5.624;2023-05-16T00:58:09;101791.22;;;9.14;79.56
59043;BME280;44826;51.596;5.624;2023-05-16T01:00:35;101791.25;;;9.08;79.58
59043;BME280;44826;51.596;5.624;2023-05-16T01:03:04;101790.41;;;9.03;79.46
59043;BME280;44826;51.596;5.624;2023-05-16T01:05:29;101793.88;;;8.97;79.63
59043;BME280;44826;51.596;5.624;2023-05-16T01:07:55;101800.84;;;8.92;79.81
59043;BME280;44826;51.596;5.624;2023-05-16T01:10:21;101801.72;;;8.86;80.19
59043;BME280;44826;51.596;5.624;2023-05-16T01:13:10;101800.00;;;8.84;80.04
59043;BME280;44826;51.596;5.624;2023-05-16T01:16:03;101800.88;;;8.79;79.86
59043;BME280;44826;51.596;5.624;2023-05-16T01:18:47;101802.63;;;8.74;79.74
59043;BME280;44826;51.596;5.624;2023-05-16T01:21:20;101810.41;;;8.68;80.02
59043;BME280;44826;51.596;5.624;2023-05-16T01:26:25;101814.72;;;8.66;80.00
59043;BME280;44826;51.596;5.624;2023-05-16T01:28:51;101815.63;;;8.63;79.87
59043;BME280;44826;51.596;5.624;2023-05-16T01:31:17;101812.16;;;8.61;80.11
59043;BME280;44826;51.596;5.624;2023-05-16T01:33:42;101807.81;;;8.60;79.76
59043;BME280;44826;51.596;5.624;2023-05-16T01:39:23;101805.25;;;8.59;79.29
59043;BME280;44826;51.596;5.624;2023-05-16T01:42:03;101805.22;;;8.54;79.36
59043;BME280;44826;51.596;5.624;2023-05-16T01:44:36;101807.84;;;8.49;79.23
59043;BME280;44826;51.596;5.624;2023-05-16T01:47:09;101818.19;;;8.45;79.16
59043;BME280;44826;51.596;5.624;2023-05-16T01:49:42;101818.19;;;8.42;79.14
59043;BME280;44826;51.596;5.624;2023-05-16T01:52:15;101814.75;;;8.33;79.32
59043;BME280;44826;51.596;5.624;2023-05-16T01:54:44;101819.94;;;8.32;79.09
59043;BME280;44826;51.596;5.624;2023-05-16T01:57:12;101825.13;;;8.26;78.86
59043;BME280;44826;51.596;5.624;2023-05-16T01:59:38;101820.78;;;8.20;78.87
59043;BME280;44826;51.596;5.624;2023-05-16T02:02:04;101827.72;;;8.15;78.86
59043;BME280;44826;51.596;5.624;2023-05-16T02:04:30;101820.81;;;8.11;78.87
59043;BME280;44826;51.596;5.624;2023-05-16T02:06:55;101823.41;;;8.06;79.15
59043;BME280;44826;51.596;5.624;2023-05-16T02:09:21;101824.25;;;8.00;79.01
59043;BME280;44826;51.596;5.624;2023-05-16T02:11:46;101832.88;;;7.98;79.42
59043;BME280;44826;51.596;5.624;2023-05-16T02:14:11;101830.28;;;7.95;79.12
59043;BME280;44826;51.596;5.624;2023-05-16T02:16:37;101833.75;;;7.92;78.91
59043;BME280;44826;51.596;5.624;2023-05-16T02:19:02;101832.03;;;7.89;79.09
59043;BME280;44826;51.596;5.624;2023-05-16T02:21:27;101832.00;;;7.86;78.67
59043;BME280;44826;51.596;5.624;2023-05-16T02:23:53;101836.31;;;7.84;79.17
59043;BME280;44826;51.596;5.624;2023-05-16T02:26:18;101839.78;;;7.79;79.35
59043;BME280;44826;51.596;5.624;2023-05-16T02:28:43;101833.72;;;7.77;79.11
59043;BME280;44826;51.596;5.624;2023-05-16T02:31:09;101838.03;;;7.74;79.31
59043;BME280;44826;51.596;5.624;2023-05-16T02:33:34;101840.63;;;7.73;78.85
59043;BME280;44826;51.596;5.624;2023-05-16T02:35:59;101836.31;;;7.72;78.90
59043;BME280;44826;51.596;5.624;2023-05-16T02:38:25;101841.47;;;7.73;79.04
59043;BME280;44826;51.596;5.624;2023-05-16T02:40:50;101846.66;;;7.70;79.00
59043;BME280;44826;51.596;5.624;2023-05-16T02:43:15;101852.69;;;7.68;79.05
59043;BME280;44826;51.596;5.624;2023-05-16T02:45:41;101850.09;;;7.63;79.32
59043;BME280;44826;51.596;5.624;2023-05-16T02:48:06;101853.53;;;7.59;79.08
59043;BME280;44826;51.596;5.624;2023-05-16T02:50:32;101849.22;;;7.56;79.36
59043;BME280;44826;51.596;5.624;2023-05-16T02:52:58;101848.31;;;7.53;79.57
59043;BME280;44826;51.596;5.624;2023-05-16T02:55:26;101870.78;;;7.55;79.68
59043;BME280;44826;51.596;5.624;2023-05-16T02:57:52;101875.13;;;7.56;79.56
59043;BME280;44826;51.596;5.624;2023-05-16T03:00:17;101866.47;;;7.56;79.48
59043;BME280;44826;51.596;5.624;2023-05-16T03:02:43;101868.19;;;7.55;79.75
59043;BME280;44826;51.596;5.624;2023-05-16T03:05:09;101873.38;;;7.55;79.75
59043;BME280;44826;51.596;5.624;2023-05-16T03:07:35;101870.78;;;7.57;79.32
59043;BME280;44826;51.596;5.624;2023-05-16T03:10:01;101877.69;;;7.58;79.84
59043;BME280;44826;51.596;5.624;2023-05-16T03:12:26;101879.44;;;7.59;79.57
59043;BME280;44826;51.596;5.624;2023-05-16T03:14:52;101876.00;;;7.58;79.33
59043;BME280;44826;51.596;5.624;2023-05-16T03:17:17;101875.13;;;7.56;79.63
59043;BME280;44826;51.596;5.624;2023-05-16T03:19:42;101885.47;;;7.56;79.56
59043;BME280;44826;51.596;5.624;2023-05-16T03:22:08;101874.22;;;7.53;79.55
59043;BME280;44826;51.596;5.624;2023-05-16T03:24:33;101884.59;;;7.50;79.92
59043;BME280;44826;51.596;5.624;2023-05-16T03:26:58;101888.03;;;7.49;79.91
59043;BME280;44826;51.596;5.624;2023-05-16T03:29:24;101887.16;;;7.47;79.92
59043;BME280;44826;51.596;5.624;2023-05-16T03:31:51;101886.28;;;7.44;79.86
59043;BME280;44826;51.596;5.624;2023-05-16T03:34:16;101884.56;;;7.43;79.92
59043;BME280;44826;51.596;5.624;2023-05-16T03:36:41;101894.03;;;7.40;79.67
59043;BME280;44826;51.596;5.624;2023-05-16T03:39:07;101892.31;;;7.39;79.61
59043;BME280;44826;51.596;5.624;2023-05-16T03:41:32;101894.03;;;7.37;79.72
59043;BME280;44826;51.596;5.624;2023-05-16T03:43:59;101897.47;;;7.34;80.02
59043;BME280;44826;51.596;5.624;2023-05-16T03:46:24;101902.63;;;7.33;80.08
59043;BME280;44826;51.596;5.624;2023-05-16T03:48:49;101900.88;;;7.32;80.16
59043;BME280;44826;51.596;5.624;2023-05-16T03:51:15;101902.59;;;7.29;80.00
59043;BME280;44826;51.596;5.624;2023-05-16T03:53:40;101905.19;;;7.29;80.12
59043;BME280;44826;51.596;5.624;2023-05-16T03:56:06;101906.06;;;7.25;79.95
59043;BME280;44826;51.596;5.624;2023-05-16T03:58:32;101905.16;;;7.22;80.00
59043;BME280;44826;51.596;5.624;2023-05-16T04:00:57;101909.44;;;7.18;79.95
59043;BME280;44826;51.596;5.624;2023-05-16T04:03:23;101905.13;;;7.16;80.29
59043;BME280;44826;51.596;5.624;2023-05-16T04:05:53;101907.69;;;7.14;80.30
59043;BME280;44826;51.596;5.624;2023-05-16T04:08:18;101921.53;;;7.14;80.23
59043;BME280;44826;51.596;5.624;2023-05-16T04:10:44;101921.50;;;7.13;80.10
59043;BME280;44826;51.596;5.624;2023-05-16T04:13:09;101920.63;;;7.12;80.30
59043;BME280;44826;51.596;5.624;2023-05-16T04:15:34;101920.63;;;7.12;80.40
59043;BME280;44826;51.596;5.624;2023-05-16T04:18:00;101921.47;;;7.07;80.70
59043;BME280;44826;51.596;5.624;2023-05-16T04:20:25;101924.03;;;7.05;80.66
59043;BME280;44826;51.596;5.624;2023-05-16T04:22:50;101922.28;;;7.04;80.98
59043;BME280;44826;51.596;5.624;2023-05-16T04:25:16;101924.91;;;7.06;80.64
59043;BME280;44826;51.596;5.624;2023-05-16T04:27:41;101925.75;;;7.06;81.07
59043;BME280;44826;51.596;5.624;2023-05-16T04:30:07;101926.66;;;7.07;80.71
59043;BME280;44826;51.596;5.624;2023-05-16T04:32:33;101934.41;;;7.08;80.55
59043;BME280;44826;51.596;5.624;2023-05-16T04:35:01;101937.88;;;7.10;80.85
59043;BME280;44826;51.596;5.624;2023-05-16T04:37:26;101936.16;;;7.12;80.80
59043;BME280;44826;51.596;5.624;2023-05-16T04:39:51;101943.94;;;7.14;80.92
59043;BME280;44826;51.596;5.624;2023-05-16T04:42:18;101953.44;;;7.17;80.63
59043;BME280;44826;51.596;5.624;2023-05-16T04:44:43;101949.13;;;7.16;80.60
59043;BME280;44826;51.596;5.624;2023-05-16T04:47:09;101955.19;;;7.19;80.49
59043;BME280;44826;51.596;5.624;2023-05-16T04:49:34;101958.66;;;7.21;80.59
59043;BME280;44826;51.596;5.624;2023-05-16T04:52:00;101956.94;;;7.25;80.28
59043;BME280;44826;51.596;5.624;2023-05-16T04:54:25;101956.94;;;7.25;80.53
59043;BME280;44826;51.596;5.624;2023-05-16T04:56:51;101954.34;;;7.26;80.43
59043;BME280;44826;51.596;5.624;2023-05-16T04:59:16;101960.41;;;7.27;80.56
59043;BME280;44826;51.596;5.624;2023-05-16T05:01:41;101962.16;;;7.31;80.33
59043;BME280;44826;51.596;5.624;2023-05-16T05:04:07;101963.00;;;7.32;80.41
59043;BME280;44826;51.596;5.624;2023-05-16T05:06:32;101962.19;;;7.36;80.35
59043;BME280;44826;51.596;5.624;2023-05-16T05:08:57;101964.78;;;7.39;80.51
59043;BME280;44826;51.596;5.624;2023-05-16T05:11:22;101965.66;;;7.41;80.64
59043;BME280;44826;51.596;5.624;2023-05-16T05:13:48;101960.50;;;7.46;80.03
59043;BME280;44826;51.596;5.624;2023-05-16T05:16:13;101976.06;;;7.49;80.10
59043;BME280;44826;51.596;5.624;2023-05-16T05:18:38;101963.13;;;7.52;80.36
59043;BME280;44826;51.596;5.624;2023-05-16T05:21:04;101970.94;;;7.58;80.04
59043;BME280;44826;51.596;5.624;2023-05-16T05:23:29;101972.69;;;7.62;79.98
59043;BME280;44826;51.596;5.624;2023-05-16T05:25:55;101977.88;;;7.67;80.42
59043;BME280;44826;51.596;5.624;2023-05-16T05:28:20;101968.41;;;7.72;80.04
59043;BME280;44826;51.596;5.624;2023-05-16T05:30:45;101977.94;;;7.78;80.20
59043;BME280;44826;51.596;5.624;2023-05-16T05:33:13;101976.22;;;7.81;79.70
59043;BME280;44826;51.596;5.624;2023-05-16T05:35:40;101983.13;;;7.87;78.86
59043;BME280;44826;51.596;5.624;2023-05-16T05:38:06;101978.00;;;7.92;79.68
59043;BME280;44826;51.596;5.624;2023-05-16T05:40:31;101989.22;;;7.97;79.56
59043;BME280;44826;51.596;5.624;2023-05-16T05:42:56;101991.84;;;8.01;78.72
59043;BME280;44826;51.596;5.624;2023-05-16T05:45:21;101984.94;;;8.07;79.07
59043;BME280;44826;51.596;5.624;2023-05-16T05:47:47;101991.00;;;8.12;78.74
59043;BME280;44826;51.596;5.624;2023-05-16T05:50:12;101992.75;;;8.16;78.76
59043;BME280;44826;51.596;5.624;2023-05-16T05:52:39;101989.31;;;8.22;78.61
59043;BME280;44826;51.596;5.624;2023-05-16T05:55:05;101986.75;;;8.28;78.50
59043;BME280;44826;51.596;5.624;2023-05-16T05:57:30;101995.38;;;8.31;78.11
59043;BME280;44826;51.596;5.624;2023-05-16T05:59:56;101997.13;;;8.35;78.00
59043;BME280;44826;51.596;5.624;2023-05-16T06:02:21;102000.56;;;8.41;77.64
59043;BME280;44826;51.596;5.624;2023-05-16T06:04:46;102004.91;;;8.45;77.33
59043;BME280;44826;51.596;5.624;2023-05-16T06:07:12;102009.28;;;8.52;77.37
59043;BME280;44826;51.596;5.624;2023-05-16T06:09:39;102008.44;;;8.58;75.65
59043;BME280;44826;51.596;5.624;2023-05-16T06:12:05;102011.88;;;8.61;76.27
59043;BME280;44826;51.596;5.624;2023-05-16T06:14:31;102016.22;;;8.65;75.53
59043;BME280;44826;51.596;5.624;2023-05-16T06:16:56;102014.50;;;8.71;75.67
59043;BME280;44826;51.596;5.624;2023-05-16T06:19:22;102017.94;;;8.76;75.10
59043;BME280;44826;51.596;5.624;2023-05-16T06:21:47;102018.84;;;8.79;75.95
59043;BME280;44826;51.596;5.624;2023-05-16T06:24:13;102023.16;;;8.79;75.26
59043;BME280;44826;51.596;5.624;2023-05-16T06:26:38;102021.44;;;8.81;75.22
59043;BME280;44826;51.596;5.624;2023-05-16T06:29:03;102027.50;;;8.83;74.84
59043;BME280;44826;51.596;5.624;2023-05-16T06:31:28;102024.91;;;8.86;74.89
59043;BME280;44826;51.596;5.624;2023-05-16T06:33:54;102027.50;;;8.91;73.91
59043;BME280;44826;51.596;5.624;2023-05-16T06:36:19;102021.44;;;8.92;74.84
59043;BME280;44826;51.596;5.624;2023-05-16T06:38:44;102030.06;;;9.00;74.80
59043;BME280;44826;51.596;5.624;2023-05-16T06:41:10;102028.34;;;9.02;74.01
59043;BME280;44826;51.596;5.624;2023-05-16T06:43:35;102030.09;;;8.99;74.56
59043;BME280;44826;51.596;5.624;2023-05-16T06:46:00;102030.09;;;8.99;74.10
59043;BME280;44826;51.596;5.624;2023-05-16T06:48:26;102031.81;;;9.04;75.65
59043;BME280;44826;51.596;5.624;2023-05-16T06:50:51;102042.22;;;9.14;74.11
59043;BME280;44826;51.596;5.624;2023-05-16T06:53:17;102031.81;;;9.18;73.70
59043;BME280;44826;51.596;5.624;2023-05-16T06:55:43;102029.22;;;9.26;74.16
59043;BME280;44826;51.596;5.624;2023-05-16T06:58:08;102030.91;;;9.33;73.95
59043;BME280;44826;51.596;5.624;2023-05-16T07:00:34;102033.53;;;9.38;72.17
59043;BME280;44826;51.596;5.624;2023-05-16T07:02:59;102035.22;;;9.42;73.14
59043;BME280;44826;51.596;5.624;2023-05-16T07:05:24;102034.38;;;9.48;72.45
59043;BME280;44826;51.596;5.624;2023-05-16T07:07:50;102030.88;;;9.52;71.12
59043;BME280;44826;51.596;5.624;2023-05-16T07:10:15;102033.47;;;9.56;70.52
59043;BME280;44826;51.596;5.624;2023-05-16T07:12:41;102036.94;;;9.60;72.38
59043;BME280;44826;51.596;5.624;2023-05-16T07:15:07;102034.34;;;9.63;71.05
59043;BME280;44826;51.596;5.624;2023-05-16T07:17:33;102044.72;;;9.63;70.86
59043;BME280;44826;51.596;5.624;2023-05-16T07:19:58;102042.13;;;9.68;72.39
59043;BME280;44826;51.596;5.624;2023-05-16T07:22:23;102036.06;;;9.72;70.37
59043;BME280;44826;51.596;5.624;2023-05-16T07:24:49;102042.97;;;9.75;69.76
59043;BME280;44826;51.596;5.624;2023-05-16T07:27:14;102039.47;;;9.77;68.25
59043;BME280;44826;51.596;5.624;2023-05-16T07:29:40;102042.94;;;9.79;66.57
59043;BME280;44826;51.596;5.624;2023-05-16T07:32:05;102043.81;;;9.84;67.55
59043;BME280;44826;51.596;5.624;2023-05-16T07:34:30;102036.84;;;9.88;68.56
59043;BME280;44826;51.596;5.624;2023-05-16T07:36:56;102043.75;;;9.94;69.31
59043;BME280;44826;51.596;5.624;2023-05-16T07:39:21;102045.47;;;9.95;67.93
59043;BME280;44826;51.596;5.624;2023-05-16T07:41:46;102046.34;;;9.94;68.34
59043;BME280;44826;51.596;5.624;2023-05-16T07:44:12;102049.84;;;9.94;66.93
59043;BME280;44826;51.596;5.624;2023-05-16T07:46:37;102043.75;;;9.94;66.69
59043;BME280;44826;51.596;5.624;2023-05-16T07:49:02;102041.16;;;9.98;67.30
59043;BME280;44826;51.596;5.624;2023-05-16T07:51:28;102044.59;;;10.05;69.09
59043;BME280;44826;51.596;5.624;2023-05-16T07:53:53;102046.31;;;10.11;67.87
59043;BME280;44826;51.596;5.624;2023-05-16T07:56:18;102044.53;;;10.17;69.00
59043;BME280;44826;51.596;5.624;2023-05-16T07:58:44;102052.28;;;10.28;67.14
59043;BME280;44826;51.596;5.624;2023-05-16T08:01:10;102059.19;;;10.34;67.74
59043;BME280;44826;51.596;5.624;2023-05-16T08:03:35;102058.31;;;10.35;65.83
59043;BME280;44826;51.596;5.624;2023-05-16T08:06:01;102052.28;;;10.39;66.93
59043;BME280;44826;51.596;5.624;2023-05-16T08:08:26;102053.94;;;10.50;68.01
59043;BME280;44826;51.596;5.624;2023-05-16T08:10:51;102059.09;;;10.59;65.19
59043;BME280;44826;51.596;5.624;2023-05-16T08:13:17;102069.47;;;10.62;64.94
59043;BME280;44826;51.596;5.624;2023-05-16T08:15:42;102060.78;;;10.66;64.85
59043;BME280;44826;51.596;5.624;2023-05-16T08:18:12;102059.88;;;10.69;64.69
59043;BME280;44826;51.596;5.624;2023-05-16T08:20:38;102057.22;;;10.76;65.44
59043;BME280;44826;51.596;5.624;2023-05-16T08:23:04;102064.16;;;10.77;65.72
59043;BME280;44826;51.596;5.624;2023-05-16T08:25:29;102072.91;;;10.70;65.25
59043;BME280;44826;51.596;5.624;2023-05-16T08:27:54;102072.94;;;10.62;65.48
59043;BME280;44826;51.596;5.624;2023-05-16T08:30:20;102062.53;;;10.61;64.85
59043;BME280;44826;51.596;5.624;2023-05-16T08:32:45;102059.03;;;10.65;64.30
59043;BME280;44826;51.596;5.624;2023-05-16T08:35:10;102059.00;;;10.70;63.02
59043;BME280;44826;51.596;5.624;2023-05-16T08:37:37;102068.50;;;10.78;63.20
59043;BME280;44826;51.596;5.624;2023-05-16T08:40:05;102062.34;;;10.92;64.07
59043;BME280;44826;51.596;5.624;2023-05-16T08:42:32;102066.53;;;11.10;63.52
59043;BME280;44826;51.596;5.624;2023-05-16T08:44:58;102059.47;;;11.24;64.78
59043;BME280;44826;51.596;5.624;2023-05-16T08:47:23;102052.50;;;11.27;60.56
59043;BME280;44826;51.596;5.624;2023-05-16T08:49:51;102069.00;;;11.26;63.40
59043;BME280;44826;51.596;5.624;2023-05-16T08:52:20;102062.13;;;11.18;63.36
59043;BME280;44826;51.596;5.624;2023-05-16T08:54:49;102058.75;;;11.05;64.04
59043;BME280;44826;51.596;5.624;2023-05-16T08:57:15;102060.56;;;10.97;63.34
59043;BME280;44826;51.596;5.624;2023-05-16T08:59:43;102062.34;;;10.92;62.82
59043;BME280;44826;51.596;5.624;2023-05-16T09:02:09;102058.81;;;10.96;64.73
59043;BME280;44826;51.596;5.624;2023-05-16T09:04:35;102057.06;;;11.01;64.90
59043;BME280;44826;51.596;5.624;2023-05-16T09:07:01;102056.09;;;11.13;64.94
59043;BME280;44826;51.596;5.624;2023-05-16T09:09:26;102059.47;;;11.23;61.75
59043;BME280;44826;51.596;5.624;2023-05-16T09:11:51;102054.16;;;11.35;63.05
59043;BME280;44826;51.596;5.624;2023-05-16T09:14:17;102051.41;;;11.48;62.07
59043;BME280;44826;51.596;5.624;2023-05-16T09:16:44;102053.91;;;11.62;60.89
59043;BME280;44826;51.596;5.624;2023-05-16T09:19:11;102051.09;;;11.80;60.71
59043;BME280;44826;51.596;5.624;2023-05-16T09:21:37;102047.50;;;11.89;56.43
59043;BME280;44826;51.596;5.624;2023-05-16T09:24:05;102058.78;;;11.90;58.72
59043;BME280;44826;51.596;5.624;2023-05-16T09:26:36;102054.44;;;11.90;58.84
59043;BME280;44826;51.596;5.624;2023-05-16T09:29:10;102051.00;;;11.88;60.77
59043;BME280;44826;51.596;5.624;2023-05-16T09:31:35;102050.19;;;11.83;60.49
59043;BME280;44826;51.596;5.624;2023-05-16T09:34:06;102047.50;;;11.89;62.76
59043;BME280;44826;51.596;5.624;2023-05-16T09:36:31;102053.47;;;11.97;59.20
59043;BME280;44826;51.596;5.624;2023-05-16T09:38:57;102048.19;;;12.05;59.92
59043;BME280;44826;51.596;5.624;2023-05-16T09:41:22;102054.22;;;12.12;59.26
59043;BME280;44826;51.596;5.624;2023-05-16T09:43:47;102061.13;;;12.16;59.30
59043;BME280;44826;51.596;5.624;2023-05-16T09:46:13;102053.28;;;12.18;55.76
59043;BME280;44826;51.596;5.624;2023-05-16T09:48:44;102056.75;;;12.18;59.35
59043;BME280;44826;51.596;5.624;2023-05-16T09:51:11;102065.47;;;12.14;58.62
59043;BME280;44826;51.596;5.624;2023-05-16T09:53:37;102062.09;;;12.07;58.27
59043;BME280;44826;51.596;5.624;2023-05-16T09:56:05;102056.94;;;12.03;60.16
59043;BME280;44826;51.596;5.624;2023-05-16T09:58:32;102064.78;;;11.99;59.53
59043;BME280;44826;51.596;5.624;2023-05-16T10:00:58;102070.91;;;11.95;58.41
59043;BME280;44826;51.596;5.624;2023-05-16T10:03:24;102064.03;;;11.88;58.91
59043;BME280;44826;51.596;5.624;2023-05-16T10:05:51;102061.44;;;11.88;59.93
59043;BME280;44826;51.596;5.624;2023-05-16T10:08:19;102063.13;;;11.92;59.79
59043;BME280;44826;51.596;5.624;2023-05-16T10:10:45;102064.84;;;11.93;59.91
59043;BME280;44826;51.596;5.624;2023-05-16T10:13:13;102059.63;;;11.93;57.00
59043;BME280;44826;51.596;5.624;2023-05-16T10:15:40;102052.59;;;12.02;60.74
59043;BME280;44826;51.596;5.624;2023-05-16T10:18:06;102055.03;;;12.14;57.55
59043;BME280;44826;51.596;5.624;2023-05-16T10:20:36;102052.25;;;12.29;59.05
59043;BME280;44826;51.596;5.624;2023-05-16T10:23:03;102039.88;;;12.44;55.87
59043;BME280;44826;51.596;5.624;2023-05-16T10:25:34;102042.28;;;12.58;57.53
59043;BME280;44826;51.596;5.624;2023-05-16T10:28:01;102044.84;;;12.63;56.45
59043;BME280;44826;51.596;5.624;2023-05-16T10:30:28;102043.13;;;12.62;54.90
59043;BME280;44826;51.596;5.624;2023-05-16T10:32:55;102042.28;;;12.58;55.31
59043;BME280;44826;51.596;5.624;2023-05-16T10:35:20;102047.59;;;12.52;55.71
59043;BME280;44826;51.596;5.624;2023-05-16T10:37:47;102053.75;;;12.48;56.06
59043;BME280;44826;51.596;5.624;2023-05-16T10:40:13;102042.38;;;12.50;56.77
59043;BME280;44826;51.596;5.624;2023-05-16T10:42:38;102049.25;;;12.57;54.15
59043;BME280;44826;51.596;5.624;2023-05-16T10:45:15;102039.53;;;12.67;56.08
59043;BME280;44826;51.596;5.624;2023-05-16T10:47:52;102040.31;;;12.74;56.02
59043;BME280;44826;51.596;5.624;2023-05-16T10:50:31;102045.50;;;12.77;50.94
59043;BME280;44826;51.596;5.624;2023-05-16T10:53:20;102039.22;;;12.87;54.65
59043;BME280;44826;51.596;5.624;2023-05-16T10:58:26;102040.63;;;13.07;55.03
59043;BME280;44826;51.596;5.624;2023-05-16T11:01:29;102044.94;;;13.11;53.76
59043;BME280;44826;51.596;5.624;2023-05-16T11:06:21;102043.44;;;12.98;53.93
59043;BME280;44826;51.596;5.624;2023-05-16T11:16:50;102041.22;;;13.25;54.95
59043;BME280;44826;51.596;5.624;2023-05-16T11:19:39;102040.22;;;13.32;53.30
59043;BME280;44826;51.596;5.624;2023-05-16T11:22:09;102042.75;;;13.35;54.28
59043;BME280;44826;51.596;5.624;2023-05-16T11:24:37;102045.31;;;13.38;50.62
59043;BME280;44826;51.596;5.624;2023-05-16T11:27:04;102053.22;;;13.35;50.92
59043;BME280;44826;51.596;5.624;2023-05-16T11:29:34;102050.69;;;13.30;52.59
59043;BME280;44826;51.596;5.624;2023-05-16T11:32:01;102045.56;;;13.26;50.58
59043;BME280;44826;51.596;5.624;2023-05-16T11:34:28;102049.06;;;13.25;50.77
59043;BME280;44826;51.596;5.624;2023-05-16T11:36:53;102053.47;;;13.21;50.95
59043;BME280;44826;51.596;5.624;2023-05-16T11:39:20;102052.59;;;13.20;52.33
59043;BME280;44826;51.596;5.624;2023-05-16T11:41:45;102047.38;;;13.20;51.66
59043;BME280;44826;51.596;5.624;2023-05-16T11:44:11;102055.22;;;13.22;54.01
59043;BME280;44826;51.596;5.624;2023-05-16T11:46:40;102049.06;;;13.25;51.85
59043;BME280;44826;51.596;5.624;2023-05-16T11:49:06;102053.34;;;13.27;51.99
59043;BME280;44826;51.596;5.624;2023-05-16T11:51:34;102033.41;;;13.21;52.87
59043;BME280;44826;51.596;5.624;2023-05-16T11:54:00;102054.38;;;13.18;52.46
59043;BME280;44826;51.596;5.624;2023-05-16T11:56:26;102041.44;;;13.12;52.68
59043;BME280;44826;51.596;5.624;2023-05-16T11:58:52;102049.19;;;13.15;53.91
59043;BME280;44826;51.596;5.624;2023-05-16T12:01:17;102040.28;;;13.29;54.03
59043;BME280;44826;51.596;5.624;2023-05-16T12:03:43;102049.69;;;13.41;51.37
59043;BME280;44826;51.596;5.624;2023-05-16T12:06:08;102053.81;;;13.53;50.72
59043;BME280;44826;51.596;5.624;2023-05-16T12:08:33;102051.03;;;13.60;50.92
59043;BME280;44826;51.596;5.624;2023-05-16T12:10:59;102049.22;;;13.65;50.92
59043;BME280;44826;51.596;5.624;2023-05-16T12:13:25;102065.78;;;13.66;50.63
59043;BME280;44826;51.596;5.624;2023-05-16T12:15:51;102064.91;;;13.65;48.91
59043;BME280;44826;51.596;5.624;2023-05-16T12:18:17;102071.06;;;13.63;49.31
59043;BME280;44826;51.596;5.624;2023-05-16T12:20:43;102073.75;;;13.58;50.24
59043;BME280;44826;51.596;5.624;2023-05-16T12:23:12;102072.88;;;13.58;51.74
59043;BME280;44826;51.596;5.624;2023-05-16T12:25:39;102067.47;;;13.67;51.95
59043;BME280;44826;51.596;5.624;2023-05-16T12:28:11;102068.00;;;13.86;52.85
59043;BME280;44826;51.596;5.624;2023-05-16T12:30:42;102073.06;;;13.94;52.60
59043;BME280;44826;51.596;5.624;2023-05-16T12:33:12;102066.16;;;13.90;50.42
59043;BME280;44826;51.596;5.624;2023-05-16T12:35:39;102072.53;;;13.76;49.96
59043;BME280;44826;51.596;5.624;2023-05-16T12:38:09;102079.84;;;13.59;51.28
59043;BME280;44826;51.596;5.624;2023-05-16T12:40:36;102080.06;;;13.46;52.14
59043;BME280;44826;51.596;5.624;2023-05-16T12:43:01;102074.13;;;13.35;52.42
59043;BME280;44826;51.596;5.624;2023-05-16T12:45:26;102075.19;;;13.25;52.55
59043;BME280;44826;51.596;5.624;2023-05-16T12:47:52;102073.69;;;13.11;52.06
59043;BME280;44826;51.596;5.624;2023-05-16T12:50:17;102079.06;;;12.99;52.97
59043;BME280;44826;51.596;5.624;2023-05-16T12:55:13;102079.28;;;12.88;54.60
59043;BME280;44826;51.596;5.624;2023-05-16T12:57:41;102078.38;;;12.89;54.82
59043;BME280;44826;51.596;5.624;2023-05-16T13:00:07;102085.25;;;12.95;53.90
59043;BME280;44826;51.596;5.624;2023-05-16T13:02:34;102082.53;;;13.01;52.49
59043;BME280;44826;51.596;5.624;2023-05-16T13:04:59;102088.50;;;13.08;52.45
59043;BME280;44826;51.596;5.624;2023-05-16T13:07:24;102089.34;;;13.11;53.27
59043;BME280;44826;51.596;5.624;2023-05-16T13:09:50;102093.69;;;13.11;50.75
59043;BME280;44826;51.596;5.624;2023-05-16T13:12:15;102097.22;;;13.08;52.12
59043;BME280;44826;51.596;5.624;2023-05-16T13:14:40;102098.19;;;13.02;51.38